EDT,Max TemperatureF,Mean TemperatureF,Min TemperatureF,Max Dew PointF,MeanDew PointF,Min DewpointF,Max Humidity, Mean Humidity, Min Humidity, Max Sea Level PressureIn, Mean Sea Level PressureIn, Min Sea Level PressureIn, Max VisibilityMiles, Mean VisibilityMiles, Min VisibilityMiles, Max Wind SpeedMPH, Mean Wind SpeedMPH, Max Gust SpeedMPH,PrecipitationIn, CloudCover, Events, WindDirDegrees
2012-10-1,59,54,49,50,48,46,91,85,72,29.92,29.70,29.57,10,9,2,14,7,22,0.00,8,Rain,222
2012-10-2,63,56,50,55,51,48,92,84,69,30.09,30.01,29.92,10,8,0,5,1,,0.00,7,Fog-Rain,113
2012-10-3,61,58,55,58,56,53,91,89,85,30.19,30.13,30.08,10,6,0,4,0,,0.00,8,Fog-Rain,153
2012-10-4,60,58,56,58,57,54,92,91,91,30.19,30.12,30.05,10,2,0,8,1,,0.00,8,Fog-Rain,167
2012-10-5,72,63,54,63,54,50,92,80,50,30.04,29.97,29.89,10,6,0,9,2,,0.00,6,Fog,193
2012-10-6,63,54,44,57,49,35,87,82,67,29.91,29.80,29.69,10,9,3,17,5,24,0.00,5,Rain,234
2012-10-7,49,43,37,38,35,33,89,72,58,30.07,30.01,29.92,10,10,10,14,3,20,0.00,5,Rain,244
2012-10-8,52,43,35,39,34,26,92,74,38,30.32,30.20,30.06,10,9,0,8,1,,0.00,5,Fog-Rain,247
2012-10-9,57,42,29,41,35,28,94,75,49,30.32,30.25,30.13,10,9,0,8,1,,0.00,4,Fog,176
2012-10-10,54,48,42,48,43,38,91,82,70,30.13,29.91,29.72,10,8,0,21,4,32,0.00,7,Fog-Rain,180
2012-10-11,50,44,38,38,31,23,84,62,37,30.05,29.94,29.77,10,10,5,20,6,28,0.00,6,Rain,259
2012-10-12,45,38,31,37,28,19,83,64,49,30.33,30.10,29.89,10,10,7,18,8,26,0.00,6,Rain,282
2012-10-13,47,36,24,26,22,19,89,56,34,30.41,30.33,30.22,10,10,10,14,4,21,0.00,3,,241
2012-10-14,51,42,34,48,40,27,92,89,58,30.24,30.03,29.86,10,7,2,13,7,26,0.00,8,Rain-Snow,163
2012-10-15,64,57,50,57,51,47,91,83,71,29.85,29.68,29.60,10,9,0,14,7,18,0.00,6,Fog-Rain,169
2012-10-16,52,44,36,50,35,28,92,75,64,29.87,29.71,29.60,10,8,0,15,6,25,0.00,7,Fog,290
2012-10-17,56,42,28,37,32,27,92,67,38,29.99,29.95,29.88,10,10,5,7,1,,0.00,2,,133
2012-10-18,65,50,36,40,34,28,93,61,26,30.09,30.03,29.99,10,9,0,10,2,16,0.00,0,Fog,165
2012-10-19,58,52,46,54,48,41,91,81,73,30.08,29.93,29.76,10,9,4,18,4,29,0.00,7,Rain,129
2012-10-20,70,60,50,60,51,39,91,74,39,29.75,29.68,29.60,10,8,0,14,3,29,0.00,6,Fog-Rain,197
2012-10-21,53,46,41,43,40,37,90,74,57,29.85,29.80,29.72,10,10,5,12,4,20,0.00,7,Rain,241
2012-10-22,52,47,42,38,37,35,77,67,55,30.02,29.93,29.84,10,10,10,15,8,23,0.00,5,,302
2012-10-23,54,44,34,39,31,24,83,61,31,30.17,30.10,30.02,10,10,10,10,5,,0.00,1,,329
2012-10-24,57,42,28,33,27,16,92,63,21,30.23,30.19,30.14,10,10,7,6,1,,0.00,3,,338
2012-10-25,63,47,33,37,31,21,85,53,23,30.29,30.24,30.21,10,10,10,10,2,,0.00,3,,166
2012-10-26,68,57,46,49,45,37,84,66,50,30.23,30.17,30.10,10,10,10,8,4,,0.00,0,,154
2012-10-27,67,55,44,57,48,42,92,80,57,30.13,30.07,30.01,10,6,0,7,1,,0.00,4,Fog,177
2012-10-28,61,53,45,50,43,38,91,68,42,30.06,30.00,29.92,10,8,0,13,3,20,0.00,1,Fog,63
2012-10-29,60,55,50,50,45,42,77,72,60,29.92,29.76,29.41,10,10,10,24,10,38,0.00,7,,57
2012-10-30,66,61,56,55,52,49,90,73,53,29.60,29.56,29.43,10,9,1,23,15,34,0.00,7,Rain,103
2012-10-31,58,52,45,51,46,37,92,79,68,29.56,29.49,29.46,10,9,0,13,4,21,0.00,7,Fog-Rain,176